Aeroporto :
LOGIN :

Iscrizione | Disclaimer

   EN    FR    IT 

 










Sommario :    VFR   VFR Marginale   IFR   IFR Intensivo   IFR Molto Intensivo
Visibilità : 
Base nubi : 
>= 8 km
>= 3000ft
5 / 8 km
1000 / 3000 ft
1500m / 5 km
500 / 1000 ft
800 / 1500m
200 / 500 ft
< 800m
< 200 ft
Simboli :   Temporali  Nebbia  Neve Forte  Precipitazioni Forti  Vento > 20 kt
SIGMETs :   Varie  Temporali  Ghiacco  Turbolenza  Onda orograficha  Ceneri Vulcaniche







- Altitudine del aeroporto : 18 ft
- Codice IATA : AJA
- Carte del aeroporto


LFKJ - Ajaccio

ULTIMO METAR :
  • 170930Z AUTO 23008KT CAVOK 23/17 Q1016 NOSIG

METARs OBSOLETI :
  • 170900Z AUTO 23006KT CAVOK 22/16 Q1016 NOSIG
  • 170830Z AUTO 23007KT 200V260 CAVOK 22/17 Q1016 NOSIG
  • 170800Z AUTO 23007KT CAVOK 22/17 Q1016 NOSIG
  • 170730Z AUTO 24004KT 200V300 CAVOK 21/16 Q1016 NOSIG
  • 170700Z AUTO 23004KT 210V280 CAVOK 20/15 Q1016 NOSIG

TAF TAF LFKJ
Valido dal 17 a 09 ore il 18 a 09 ore UTC


170800Z 1709/1809 24010KT CAVOK
BECMG 1718/1720 04004KT
TEMPO 1721/1803 BKN020
ATIS : +33 4 95 23 59 85
Nessun NOTAM noto per questo aeroporto.



MetMap, La meteo Aeronautica in un colpo d'occhio ! - Copyright ORBIFLY Dicembre 2007 - Disclaimer

ORBIFLY MET'MAP TEAM :

Programmazione e sviluppo : Alexandra Zaïnal
Concezione e sviluppo : Baudouin d'Aumeries
Co-Programmazione e sviluppo : Marc-Olivier Méhu
Supporto tecnico e logistico : Manuel Goepfert
Aiuto per la traduzione : Arnaldo La Scala

Contatto : metmap@orbifly.com




FONTI E CREDITI :

   NOAA